• Join FlightAware (Why Join?)
  • Login
  • US Flag 
Trick or treat! (Boo!!) 
04:44PM EDT


 

Airport Tracker/Info


-or-


 

Live Flight TrackerFlight Track Log ✈ EJA941 ✈ 10-Oct-2013 ✈ KDAL - MPTO / PTY

Flight Track Log - Related Links

Times and Time Zones

All times are in EDT time to prevent confusion due to time zone crossing. See the EJA941 flight status page for this flight to view local times or setup timezone preferences in your user account.

Time Position Orientation Groundspeed Altitude Reporting Facility
EDT Latitude Longitude Course Direction KTS MPH feet Rate Location/Type
10:09AM 32.1089 -96.1709 142° Southeast  Level Estimated
10:10AM 32.0032 -96.0745 142° Southeast  Level Estimated
10:11AM 31.8974 -95.9784 142° Southeast  Level Estimated
10:12AM 31.7915 -95.8825 142° Southeast  Level Estimated
10:12AM 32.6586 -95.6833 143° Southeast 437 503 22,000  Level Houston Center
10:13AM 31.6855 -95.7868 142° Southeast  Level Estimated
10:13AM 32.6628 -95.5256 88° East 445 512 23,000  Level Fort Worth Center
10:14AM 31.5795 -95.6913 142° Southeast  Level Estimated
10:14AM 32.6728 -95.3725 86° East 450 518 24,000  Level Fort Worth Center
10:15AM 31.4733 -95.5960 143° Southeast  Level Estimated
10:15AM 32.6828 -95.2142 86° East 466 536 25,000  Level Fort Worth Center
10:16AM 31.3645 -95.4987 143° Southeast  Level Estimated
10:16AM 32.6944 -95.0558 85° East 477 549 26,000  Level Fort Worth Center
10:17AM 31.2557 -95.4015 143° Southeast  Level Estimated
10:17AM 32.7017 -94.8953 87° East 482 555 27,000  Level Fort Worth Center
10:18AM 31.1467 -95.3046 143° Southeast  Level Estimated
10:18AM 32.6922 -94.7375 94° East 477 549 28,000  Level Fort Worth Center
10:19AM 32.6408 -94.5861 112° Southeast 477 549 29,000 960 Climbing Fort Worth Center
10:20AM 32.5894 -94.4350 112° Southeast 487 560 30,000 960 Climbing Fort Worth Center
10:21AM 32.5356 -94.2789 112° Southeast 499 574 31,000 960 Climbing Fort Worth Center
10:22AM 32.4814 -94.1233 112° Southeast 504 580 32,000 960 Climbing Fort Worth Center
10:23AM 32.4269 -93.9628 112° Southeast 510 587 33,000 960 Climbing Fort Worth Center
10:24AM 32.3706 -93.8050 113° Southeast 510 587 34,000 900 Climbing Fort Worth Center
10:25AM 32.3156 -93.6425 112° Southeast 522 601 34,900 840 Climbing Fort Worth Center
10:26AM 32.2606 -93.4778 112° Southeast 532 612 35,700 720 Climbing Fort Worth Center
10:27AM 32.1986 -93.3086 113° Southeast 543 625 36,400 840 Climbing Fort Worth Center
10:29AM 32.1122 -93.0661 113° Southeast 557 641 37,900 1,320 Climbing Houston Center
10:30AM 32.0442 -92.8758 113° Southeast 545 627 39,900 1,320 Climbing Houston Center
10:31AM 31.9858 -92.7144 113° Southeast 538 619 40,700 480 Climbing Houston Center
10:32AM 31.8933 -92.5736 128° Southeast 541 623 41,000 120 Climbing Houston Center
10:33AM 31.7878 -92.4358 132° Southeast 559 643 41,000  Level Houston Center
10:34AM 31.6806 -92.2975 132° Southeast 568 654 41,000  Level Houston Center
10:35AM 31.5717 -92.1567 132° Southeast 578 665 41,000  Level Houston Center
10:36AM 31.4544 -92.0058 132° Southeast 579 666 41,000  Level Houston Center
10:37AM 31.3436 -91.8658 133° Southeast 581 669 41,000  Level Houston Center
10:38AM 31.2122 -91.6983 133° Southeast 581 669 41,000  Level Houston Center
10:39AM 31.1028 -91.5594 133° Southeast 580 667 41,000 120 Level Houston Center
10:40AM 30.9933 -91.4211 133° Southeast 581 669 41,300 660 Climbing Houston Center
10:41AM 30.8864 -91.2853 133° Southeast 573 659 42,400 1,020 Climbing Houston Center
10:42AM 30.7800 -91.1547 133° Southeast 560 644 43,500 960 Climbing Houston Center
10:43AM 30.6797 -91.0275 132° Southeast 540 621 44,400 720 Climbing Houston Center
10:44AM 30.5608 -90.8786 133° Southeast 526 605 45,000 240 Climbing Houston Center
10:46AM 30.4617 -90.7550 133° Southeast 525 604 45,000  Level Houston Center
10:47AM 30.3600 -90.6303 133° Southeast 530 610 45,000  Level Houston Center
10:48AM 30.2603 -90.5053 133° Southeast 529 609 45,000  Level Houston Center
10:49AM 30.1506 -90.3719 134° Southeast 534 615 45,000  Level Houston Center
10:50AM 30.0514 -90.2483 133° Southeast 528 608 45,000  Level Houston Center
10:51AM 29.9489 -90.1250 134° Southeast 532 612 45,000  Level Houston Center
10:52AM 29.8469 -90.0025 134° Southeast 531 611 45,000  Level Houston Center
10:53AM 29.7033 -89.8797 143° Southeast 535 616 45,000  Level Houston Center
10:54AM 29.5839 -89.7811 144° Southeast 533 613 45,000  Level Houston Center
10:55AM 29.4639 -89.6814 144° Southeast 533 613 45,000  Level Houston Center
10:56AM 29.3433 -89.5814 144° Southeast 534 615 45,000  Level Houston Center
10:57AM 29.2211 -89.4769 143° Southeast 543 625 45,000  Level Houston Center
10:58AM 29.0767 -89.3586 144° Southeast 538 619 45,000  Level Houston Center
10:59AM 28.9569 -89.2600 144° Southeast 533 613 45,000  Level Houston Center
11:00AM 28.8361 -89.1606 144° Southeast 534 615 45,000  Level Houston Center
11:01AM 28.7161 -89.0625 144° Southeast 533 613 45,000  Level Houston Center
11:02AM 28.5944 -88.9625 144° Southeast 537 618 45,000  Level Houston Center
11:03AM 28.4736 -88.8639 144° Southeast 536 617 45,000  Level Houston Center
11:04AM 28.3289 -88.7472 145° Southeast 534 615 45,000  Level Houston Center
11:05AM 28.2036 -88.6575 148° Southeast 535 616 45,000  Level Houston Center
11:06AM 28.0653 -88.6000 160° South 530 610 45,000  Level Houston Center
11:07AM 27.9239 -88.5442 161° South 535 616 45,000  Level Houston Center
11:08AM 27.7833 -88.4881 161° South 535 616 45,000  Level Houston Center
11:09AM 27.6247 -88.4253 161° South 531 611 45,000  Level Houston Center
11:10AM 27.4867 -88.3736 162° South 528 608 45,000  Level Houston Center
11:11AM 27.3372 -88.3161 161° South 525 604 45,000  Level Houston Center
11:13AM 27.1986 -88.2499 161° South  Level FlightAware Approximate
11:20AM 26.2965 -87.8965 161° South  Level FlightAware Approximate
11:21AM 26.1676 -87.8464 161° South  Level FlightAware Approximate
11:22AM 26.0387 -87.7964 161° South  Level FlightAware Approximate
11:23AM 25.9097 -87.7465 161° South  Level FlightAware Approximate
11:24AM 25.7808 -87.6967 161° South  Level FlightAware Approximate
11:25AM 25.6518 -87.6470 161° South  Level FlightAware Approximate
11:26AM 25.5228 -87.5974 161° South  Level FlightAware Approximate
11:27AM 25.3938 -87.5480 161° South  Level FlightAware Approximate
11:28AM 25.2648 -87.4986 161° South  Level FlightAware Approximate
11:29AM 25.1357 -87.4493 161° South  Level FlightAware Approximate
11:30AM 25.0068 -87.3997 160° South  Level FlightAware Approximate
11:31AM 24.8782 -87.3493 160° South  Level FlightAware Approximate
11:32AM 24.7495 -87.2990 160° South  Level FlightAware Approximate
11:33AM 24.6203 -87.2505 162° South  Level FlightAware Approximate
11:34AM 24.4902 -87.2052 162° South  Level FlightAware Approximate
11:35AM 24.3600 -87.1599 162° South  Level FlightAware Approximate
11:36AM 24.2316 -87.1094 157° South  Level FlightAware Approximate
11:37AM 24.1057 -87.0514 157° South  Level FlightAware Approximate
11:38AM 23.9799 -86.9935 157° South  Level FlightAware Approximate
11:39AM 23.8540 -86.9357 157° South  Level FlightAware Approximate
11:40AM 23.7281 -86.8780 157° South  Level FlightAware Approximate
11:41AM 23.6021 -86.8205 157° South  Level FlightAware Approximate
11:42AM 23.4762 -86.7630 157° South  Level FlightAware Approximate
11:43AM 23.3502 -86.7057 157° South  Level FlightAware Approximate
11:44AM 23.2242 -86.6484 157° South  Level FlightAware Approximate
11:45AM 23.0982 -86.5913 157° South  Level FlightAware Approximate
11:46AM 22.9722 -86.5342 157° South  Level FlightAware Approximate
11:47AM 22.8461 -86.4773 157° South  Level FlightAware Approximate
11:48AM 22.7200 -86.4205 157° South  Level FlightAware Approximate
11:49AM 22.5939 -86.3638 157° South  Level FlightAware Approximate
11:50AM 22.4678 -86.3072 157° South  Level FlightAware Approximate
11:51AM 22.3417 -86.2507 157° South  Level FlightAware Approximate
11:52AM 22.2155 -86.1943 158° South  Level FlightAware Approximate
11:53AM 22.0893 -86.1380 158° South  Level FlightAware Approximate
11:54AM 21.9632 -86.0818 158° South  Level FlightAware Approximate
11:55AM 21.8366 -86.0266 158° South  Level FlightAware Approximate
11:56AM 21.7100 -85.9715 158° South  Level FlightAware Approximate
11:57AM 21.5834 -85.9165 158° South  Level FlightAware Approximate
11:58AM 21.4568 -85.8616 158° South  Level FlightAware Approximate
11:59AM 21.3302 -85.8068 158° South  Level FlightAware Approximate
12:00PM 21.2035 -85.7522 158° South  Level FlightAware Approximate
12:01PM 21.0769 -85.6975 158° South  Level FlightAware Approximate
12:02PM 20.9502 -85.6430 158° South  Level FlightAware Approximate
12:03PM 20.8241 -85.5870 155° Southeast  Level FlightAware Approximate
12:04PM 20.7004 -85.5252 155° Southeast  Level FlightAware Approximate
12:05PM 20.5743 -85.4693 158° South  Level FlightAware Approximate
12:06PM 20.4478 -85.4144 158° South  Level FlightAware Approximate
12:07PM 20.3214 -85.3596 158° South  Level FlightAware Approximate
12:08PM 20.1948 -85.3050 158° South  Level FlightAware Approximate
12:09PM 20.0695 -85.2512 155° Southeast  Level FlightAware Approximate
12:10PM 19.9459 -85.1893 155° Southeast  Level FlightAware Approximate
12:11PM 19.8224 -85.1275 155° Southeast  Level FlightAware Approximate
12:12PM 19.6988 -85.0659 155° Southeast  Level FlightAware Approximate
12:13PM 19.5752 -85.0043 155° Southeast  Level FlightAware Approximate
12:14PM 19.4515 -84.9430 155° Southeast  Level FlightAware Approximate
12:15PM 19.3278 -84.8818 155° Southeast  Level FlightAware Approximate
12:16PM 19.2041 -84.8207 155° Southeast  Level FlightAware Approximate
12:17PM 19.0803 -84.7598 155° Southeast  Level FlightAware Approximate
12:18PM 18.9565 -84.6989 155° Southeast  Level FlightAware Approximate
12:19PM 18.8327 -84.6381 155° Southeast  Level FlightAware Approximate
12:20PM 18.7088 -84.5774 155° Southeast  Level FlightAware Approximate
12:21PM 18.5850 -84.5167 155° Southeast  Level FlightAware Approximate
12:22PM 18.4602 -84.4582 157° South  Level FlightAware Approximate
12:23PM 18.3349 -84.4012 155° Southeast  Level FlightAware Approximate
12:24PM 18.2109 -84.3411 155° Southeast  Level FlightAware Approximate
12:25PM 18.0869 -84.2810 155° Southeast  Level FlightAware Approximate
12:26PM 17.9628 -84.2210 155° Southeast  Level FlightAware Approximate
12:27PM 17.8388 -84.1611 155° Southeast  Level FlightAware Approximate
12:28PM 17.7147 -84.1013 155° Southeast  Level FlightAware Approximate
12:29PM 17.5906 -84.0416 155° Southeast  Level FlightAware Approximate
12:30PM 17.4665 -83.9819 155° Southeast  Level FlightAware Approximate
12:31PM 17.3425 -83.9221 155° Southeast  Level FlightAware Approximate
12:32PM 17.2186 -83.8620 155° Southeast  Level FlightAware Approximate
12:33PM 17.0947 -83.8021 155° Southeast  Level FlightAware Approximate
12:34PM 16.9707 -83.7422 155° Southeast  Level FlightAware Approximate
12:35PM 16.8468 -83.6824 155° Southeast  Level FlightAware Approximate
12:36PM 16.7228 -83.6227 155° Southeast  Level FlightAware Approximate
12:37PM 16.5988 -83.5630 155° Southeast  Level FlightAware Approximate
12:38PM 16.4748 -83.5034 155° Southeast  Level FlightAware Approximate
12:39PM 16.3508 -83.4439 155° Southeast  Level FlightAware Approximate
12:40PM 16.2267 -83.3845 155° Southeast  Level FlightAware Approximate
12:41PM 16.1027 -83.3252 155° Southeast  Level FlightAware Approximate
12:42PM 15.9781 -83.2669 156° South  Level FlightAware Approximate
12:43PM 15.8533 -83.2095 156° South  Level FlightAware Approximate
12:44PM 15.7284 -83.1522 156° South  Level FlightAware Approximate
12:45PM 15.6035 -83.0950 156° South  Level FlightAware Approximate
12:46PM 15.4786 -83.0378 156° South  Level FlightAware Approximate
12:47PM 15.3536 -82.9807 156° South  Level FlightAware Approximate
12:48PM 15.2288 -82.9234 156° South  Level FlightAware Approximate
12:49PM 15.1045 -82.8650 156° South  Level FlightAware Approximate
12:50PM 14.9801 -82.8066 156° South  Level FlightAware Approximate
12:51PM 14.8557 -82.7483 156° South  Level FlightAware Approximate
12:52PM 14.7313 -82.6901 156° South  Level FlightAware Approximate
12:53PM 14.6069 -82.6320 156° South  Level FlightAware Approximate
12:54PM 14.4825 -82.5739 156° South  Level FlightAware Approximate
12:55PM 14.3581 -82.5159 156° South  Level FlightAware Approximate
12:56PM 14.2337 -82.4579 156° South  Level FlightAware Approximate
12:57PM 14.1091 -82.4003 156° South  Level FlightAware Approximate
12:58PM 13.9845 -82.3427 156° South  Level FlightAware Approximate
12:59PM 13.8599 -82.2852 156° South  Level FlightAware Approximate
01:00PM 13.7353 -82.2278 156° South  Level FlightAware Approximate
01:01PM 13.6107 -82.1704 156° South  Level FlightAware Approximate
01:02PM 13.4860 -82.1131 156° South  Level FlightAware Approximate
01:03PM 13.3614 -82.0559 156° South  Level FlightAware Approximate
01:04PM 13.2367 -81.9987 156° South  Level FlightAware Approximate
01:05PM 13.1120 -81.9415 156° South  Level FlightAware Approximate
01:06PM 12.9873 -81.8845 156° South  Level FlightAware Approximate
01:07PM 12.8626 -81.8275 156° South  Level FlightAware Approximate
01:08PM 12.7379 -81.7705 156° South  Level FlightAware Approximate
01:09PM 12.6132 -81.7136 156° South  Level FlightAware Approximate
01:10PM 12.5040 -81.6313 140° Southeast  Level FlightAware Approximate
01:11PM 12.3997 -81.5411 140° Southeast  Level FlightAware Approximate
01:12PM 12.2954 -81.4509 140° Southeast  Level FlightAware Approximate
01:13PM 12.1911 -81.3609 140° Southeast  Level FlightAware Approximate
01:14PM 12.0867 -81.2709 140° Southeast  Level FlightAware Approximate
01:15PM 11.9823 -81.1809 140° Southeast  Level FlightAware Approximate
01:16PM 11.8778 -81.0910 140° Southeast  Level FlightAware Approximate
01:17PM 11.7734 -81.0012 140° Southeast  Level FlightAware Approximate
01:18PM 11.6689 -80.9115 140° Southeast  Level FlightAware Approximate
01:19PM 11.5644 -80.8218 140° Southeast  Level FlightAware Approximate
01:20PM 11.4596 -80.7325 140° Southeast  Level FlightAware Approximate
01:21PM 11.3545 -80.6435 140° Southeast  Level FlightAware Approximate
01:22PM 11.2501 -80.5538 139° Southeast  Level FlightAware Approximate
01:23PM 11.1472 -80.4623 139° Southeast  Level FlightAware Approximate
01:24PM 11.0448 -80.3703 139° Southeast  Level FlightAware Approximate
01:25PM 10.9422 -80.2786 139° Southeast  Level FlightAware Approximate
01:26PM 10.8387 -80.1880 139° Southeast  Level FlightAware Approximate
01:27PM 10.7291 -80.1051 144° Southeast  Level FlightAware Approximate
01:28PM 10.6251 -80.0154 141° Southeast  Level FlightAware Approximate
01:29PM 10.5195 -79.9274 141° Southeast  Level FlightAware Approximate
01:30PM 10.4180 -79.8347 135° Southeast  Level FlightAware Approximate
01:31PM 10.2876 -79.7946 164° South  Level FlightAware Approximate
01:32PM 10.1579 -79.7514 161° South  Level FlightAware Approximate
01:33PM 10.0287 -79.7067 161° South  Level FlightAware Approximate
01:34PM 9.8994 -79.6619 161° South  Level FlightAware Approximate
01:35PM 9.7700 -79.6178 162° South  Level FlightAware Approximate
01:36PM 9.6407 -79.5733 159° South  Level FlightAware Approximate
01:37PM 9.5131 -79.5242 159° South  Level FlightAware Approximate
01:38PM 9.3844 -79.4781 162° South  Level FlightAware Approximate
01:39PM 9.2547 -79.4349 162° South  Level FlightAware Approximate
01:40PM 9.1256 -79.3961 154° Southeast  Level FlightAware Approximate
01:41PM 9.0714 -79.3835 154° Southeast  Level Estimated
01:42PM 9.0714 -79.3835 154° Southeast  Level Estimated
01:43PM 9.0714 -79.3835 154° Southeast  Level Estimated
01:44PM 9.0714 -79.3835 154° Southeast  Level Estimated
01:45PM 9.0714 -79.3835 154° Southeast  Level Estimated
01:46PM 9.0714 -79.3835 154° Southeast  Level Estimated
01:47PM 9.0714 -79.3835 154° Southeast  Level Estimated
01:48PM 9.0714 -79.3835 154° Southeast  Level Estimated
01:49PM 9.0714 -79.3835 154° Southeast  Level Estimated
01:50PM 9.0714 -79.3835 154° Southeast  Level Estimated
01:51PM 9.0714 -79.3835 154° Southeast  Level Estimated
01:52PM 9.0714 -79.3835 154° Southeast  Level Estimated
01:53PM 9.0714 -79.3835 154° Southeast  Level Estimated
01:54PM 9.0714 -79.3835 154° Southeast  Level Estimated
01:55PM 9.0714 -79.3835 154° Southeast  Level Estimated
01:56PM 9.0714 -79.3835 154° Southeast  Level Estimated
01:57PM 9.0714 -79.3835 154° Southeast  Level Estimated
01:58PM 9.0714 -79.3835 154° Southeast  Level Estimated
01:59PM 9.0714 -79.3835 154° Southeast  Level Estimated
02:00PM 9.0714 -79.3835 154° Southeast  Level Estimated